Time;durP1;ratioP1;P1;durP2;ratioP2;P2;SDS_P1;SDS_P2;PMS_P1;PMS_P2;Temp;Humidity;BMP_temperature;BMP_pressure;BME280_temperature;BME280_humidity;BME280_pressure;Samples;Min_cycle;Max_cycle;Signal;HPM_P1;HPM_P2
2022/12/13 00:02:58;;;;;;;20.93;12.73;;;;;;;;;;6233756;28;20348;-75
2022/12/13 00:05:58;;;;;;;21.83;11.73;;;;;;;;;;6221136;28;20018;-75
2022/12/13 00:08:58;;;;;;;22.70;13.43;;;;;;;;;;6221544;28;20033;-75
2022/12/13 00:11:59;;;;;;;25.53;15.27;;;;;;;;;;6227212;28;20017;-75
2022/12/13 00:14:59;;;;;;;23.63;12.67;;;;;;;;;;6229893;28;20488;-75
2022/12/13 00:17:59;;;;;;;21.05;12.25;;;;;;;;;;6222253;28;20029;-75
2022/12/13 00:21:02;;;;;;;28.43;13.50;;;;;;;;;;6215015;28;20116;-75
2022/12/13 00:24:04;;;;;;;28.33;14.40;;;;;;;;;;6218333;28;20549;-73
2022/12/13 00:27:04;;;;;;;25.48;13.50;;;;;;;;;;6220180;28;20018;-75
2022/12/13 00:30:05;;;;;;;22.17;11.77;;;;;;;;;;6220211;28;20014;-74
2022/12/13 00:33:05;;;;;;;23.83;12.80;;;;;;;;;;6221512;28;20501;-74
2022/12/13 00:36:06;;;;;;;24.80;13.07;;;;;;;;;;6222462;28;20018;-73
2022/12/13 00:39:07;;;;;;;23.47;12.70;;;;;;;;;;6226897;28;20037;-74
2022/12/13 00:42:07;;;;;;;21.27;11.13;;;;;;;;;;6226710;28;20041;-75
2022/12/13 00:45:08;;;;;;;20.40;11.50;;;;;;;;;;6224733;28;20766;-74
2022/12/13 00:48:08;;;;;;;17.38;8.82;;;;;;;;;;6229572;28;20068;-74
2022/12/13 00:51:10;;;;;;;19.00;9.63;;;;;;;;;;6235673;28;20393;-75
2022/12/13 00:54:10;;;;;;;18.02;9.18;;;;;;;;;;6229183;28;20025;-74
2022/12/13 00:57:10;;;;;;;22.07;9.87;;;;;;;;;;6214727;28;20049;-75
2022/12/13 01:00:11;;;;;;;19.37;10.70;;;;;;;;;;6218683;28;20029;-74
2022/12/13 01:03:24;;;;;;;18.83;11.20;;;;;;;;;;6228737;28;20033;-74
2022/12/13 01:06:29;;;;;;;19.98;10.65;;;;;;;;;;6220153;28;20026;-74
2022/12/13 01:09:31;;;;;;;13.60;7.30;;;;;;;;;;6226212;28;20186;-74
2022/12/13 01:12:32;;;;;;;16.65;8.75;;;;;;;;;;6225286;28;20494;-74
2022/12/13 01:15:32;;;;;;;12.83;7.33;;;;;;;;;;6216819;28;20116;-74
2022/12/13 01:18:32;;;;;;;19.00;8.77;;;;;;;;;;6242027;28;20091;-74
2022/12/13 01:21:32;;;;;;;17.63;9.67;;;;;;;;;;6239152;28;20037;-74
2022/12/13 01:24:33;;;;;;;18.60;10.07;;;;;;;;;;6244255;28;20021;-74
2022/12/13 01:27:33;;;;;;;16.13;9.27;;;;;;;;;;6237919;28;20025;-74
2022/12/13 01:30:33;;;;;;;15.85;8.93;;;;;;;;;;6235022;28;20056;-74
2022/12/13 01:33:34;;;;;;;14.10;7.77;;;;;;;;;;6239755;28;20017;-73
2022/12/13 01:36:35;;;;;;;17.90;9.30;;;;;;;;;;6230211;28;20026;-75
2022/12/13 01:39:35;;;;;;;12.27;6.67;;;;;;;;;;6238675;28;20421;-73
2022/12/13 01:42:38;;;;;;;17.83;9.47;;;;;;;;;;6239898;28;20025;-74
2022/12/13 01:45:38;;;;;;;15.63;8.70;;;;;;;;;;6223718;28;20037;-74
2022/12/13 01:48:47;;;;;;;15.27;9.20;;;;;;;;;;6230313;28;20433;-74
2022/12/13 01:51:51;;;;;;;16.70;8.88;;;;;;;;;;6230612;28;20021;-74
2022/12/13 01:54:54;;;;;;;18.33;8.68;;;;;;;;;;6234711;28;20513;-74
2022/12/13 01:57:56;;;;;;;16.58;8.85;;;;;;;;;;6234013;28;20042;-74
2022/12/13 02:00:56;;;;;;;;;;;;;;;;;;6225434;28;20040;-74
2022/12/13 02:03:56;;;;;;;13.60;8.23;;;;;;;;;;6222381;28;19913;-75
2022/12/13 02:06:57;;;;;;;15.53;7.50;;;;;;;;;;6223692;28;20517;-73
2022/12/13 02:09:58;;;;;;;16.30;7.77;;;;;;;;;;6222767;28;20014;-73
2022/12/13 02:12:58;;;;;;;13.02;6.10;;;;;;;;;;6225928;28;20021;-74
2022/12/13 02:16:11;;;;;;;18.07;8.93;;;;;;;;;;6238657;28;20067;-74
2022/12/13 02:19:31;;;;;;;15.98;8.75;;;;;;;;;;6241281;28;20033;-74
2022/12/13 02:22:51;;;;;;;17.85;8.85;;;;;;;;;;6239102;28;20028;-75
2022/12/13 02:25:54;;;;;;;16.45;8.85;;;;;;;;;;6229050;28;20064;-75
2022/12/13 02:29:13;;;;;;;19.15;9.10;;;;;;;;;;6236729;28;20025;-74
2022/12/13 02:32:19;;;;;;;16.98;9.63;;;;;;;;;;6240134;28;20028;-74
2022/12/13 02:35:24;;;;;;;16.45;8.07;;;;;;;;;;6246173;28;20021;-74
2022/12/13 02:38:43;;;;;;;18.45;9.27;;;;;;;;;;6239481;28;20026;-74
2022/12/13 02:41:46;;;;;;;16.42;8.82;;;;;;;;;;6239805;28;20112;-74
2022/12/13 02:44:57;;;;;;;20.05;8.25;;;;;;;;;;6237638;28;20029;-74
2022/12/13 02:47:59;;;;;;;15.38;8.65;;;;;;;;;;6238250;28;20025;-74
2022/12/13 02:51:01;;;;;;;15.88;8.43;;;;;;;;;;6236953;28;20096;-74
2022/12/13 02:54:03;;;;;;;14.65;8.30;;;;;;;;;;6239383;28;20067;-75
2022/12/13 02:57:03;;;;;;;14.73;8.18;;;;;;;;;;6237695;28;20022;-74
2022/12/13 03:00:05;;;;;;;16.10;8.17;;;;;;;;;;6240338;28;20021;-74
2022/12/13 03:03:05;;;;;;;;;;;;;;;;;;6237969;28;20116;-74
2022/12/13 03:06:30;;;;;;;14.05;7.53;;;;;;;;;;6235471;28;19966;-75
2022/12/13 03:09:30;;;;;;;17.65;9.02;;;;;;;;;;6251479;28;20064;-74
2022/12/13 03:15:57;;;;;;;15.38;7.68;;;;;;;;;;6238857;28;20053;-75
2022/12/13 03:18:58;;;;;;;15.90;8.05;;;;;;;;;;6237496;28;20554;-74
2022/12/13 03:21:59;;;;;;;18.90;9.05;;;;;;;;;;6238948;28;20159;-77
2022/12/13 03:24:59;;;;;;;16.87;10.37;;;;;;;;;;6238354;28;20432;-75
2022/12/13 03:28:00;;;;;;;18.70;8.70;;;;;;;;;;6237794;28;20044;-74
2022/12/13 03:31:00;;;;;;;13.57;7.00;;;;;;;;;;6226516;28;20031;-75
2022/12/13 03:34:00;;;;;;;14.40;7.90;;;;;;;;;;6227583;28;20580;-73
2022/12/13 03:37:01;;;;;;;16.55;8.32;;;;;;;;;;6250949;28;20243;-74
2022/12/13 03:40:01;;;;;;;19.13;9.30;;;;;;;;;;6240672;28;20021;-74
2022/12/13 03:43:01;;;;;;;14.57;8.17;;;;;;;;;;6235015;28;20087;-74
2022/12/13 03:46:01;;;;;;;16.73;7.70;;;;;;;;;;6234712;28;20031;-74
2022/12/13 03:49:02;;;;;;;19.20;9.05;;;;;;;;;;6229056;28;20021;-73
2022/12/13 03:52:02;;;;;;;18.20;8.73;;;;;;;;;;6236774;28;20022;-74
2022/12/13 03:55:02;;;;;;;21.87;9.87;;;;;;;;;;6237508;28;20018;-75
2022/12/13 03:58:02;;;;;;;20.87;10.67;;;;;;;;;;6223864;28;20049;-74
2022/12/13 04:01:04;;;;;;;21.60;11.20;;;;;;;;;;6236879;28;20029;-74
2022/12/13 04:04:04;;;;;;;22.13;10.90;;;;;;;;;;6235740;28;20103;-75
2022/12/13 04:07:04;;;;;;;23.35;12.20;;;;;;;;;;6235367;28;20080;-75
2022/12/13 04:10:05;;;;;;;18.80;9.63;;;;;;;;;;6235755;28;20032;-74
2022/12/13 04:16:24;;;;;;;21.80;10.43;;;;;;;;;;6241132;28;20030;-74
2022/12/13 04:19:24;;;;;;;21.90;11.57;;;;;;;;;;6238296;28;20032;-75
2022/12/13 04:22:24;;;;;;;21.10;10.10;;;;;;;;;;6235621;28;20101;-74
2022/12/13 04:25:25;;;;;;;23.00;12.27;;;;;;;;;;6235917;28;20884;-75
2022/12/13 04:28:25;;;;;;;25.83;12.80;;;;;;;;;;6236129;28;20028;-74
2022/12/13 04:31:25;;;;;;;18.60;9.27;;;;;;;;;;6234535;28;20045;-74
2022/12/13 04:34:25;;;;;;;21.35;11.15;;;;;;;;;;6243237;28;20515;-75
2022/12/13 04:37:25;;;;;;;22.50;12.23;;;;;;;;;;6229909;28;20057;-74
2022/12/13 04:40:25;;;;;;;23.40;12.03;;;;;;;;;;6231513;28;20029;-75
2022/12/13 04:43:26;;;;;;;25.87;12.20;;;;;;;;;;6232905;28;20026;-75
2022/12/13 04:46:26;;;;;;;32.22;12.65;;;;;;;;;;6237084;28;20060;-74
2022/12/13 04:49:26;;;;;;;24.00;12.88;;;;;;;;;;6234637;28;20039;-74
2022/12/13 04:52:26;;;;;;;29.27;13.50;;;;;;;;;;6240236;28;20268;-74
2022/12/13 04:55:27;;;;;;;29.63;14.60;;;;;;;;;;6236643;28;20302;-74
2022/12/13 04:58:27;;;;;;;32.10;15.67;;;;;;;;;;6235472;28;20053;-76
2022/12/13 05:01:27;;;;;;;35.43;15.47;;;;;;;;;;6229874;28;20033;-76
2022/12/13 05:04:27;;;;;;;29.80;17.23;;;;;;;;;;6234051;28;20325;-75
2022/12/13 05:07:28;;;;;;;20.90;9.98;;;;;;;;;;6232488;28;20022;-76
2022/12/13 05:10:28;;;;;;;28.13;14.40;;;;;;;;;;6228166;28;20017;-75
2022/12/13 05:13:29;;;;;;;28.07;14.17;;;;;;;;;;6231126;28;20014;-75
2022/12/13 05:16:29;;;;;;;27.30;13.73;;;;;;;;;;6230739;28;20055;-75
2022/12/13 05:19:29;;;;;;;22.97;12.37;;;;;;;;;;6239282;28;20014;-74
2022/12/13 05:22:29;;;;;;;31.30;14.40;;;;;;;;;;6233102;28;20025;-75
2022/12/13 05:25:29;;;;;;;24.17;13.83;;;;;;;;;;6226291;28;20042;-75
2022/12/13 05:28:30;;;;;;;27.97;14.03;;;;;;;;;;6224411;28;20025;-74
2022/12/13 05:31:30;;;;;;;24.77;12.63;;;;;;;;;;6221808;28;20099;-74
2022/12/13 05:34:30;;;;;;;22.73;11.40;;;;;;;;;;6240990;28;20013;-76
2022/12/13 05:37:30;;;;;;;31.40;15.17;;;;;;;;;;6227208;28;20018;-75
2022/12/13 05:40:31;;;;;;;32.33;17.38;;;;;;;;;;6222295;28;20345;-74
2022/12/13 05:43:31;;;;;;;34.07;18.90;;;;;;;;;;6221971;28;20033;-75
2022/12/13 05:46:31;;;;;;;34.13;19.23;;;;;;;;;;6229550;28;20060;-75
2022/12/13 05:49:31;;;;;;;46.10;22.43;;;;;;;;;;6225802;28;20029;-75
2022/12/13 05:52:31;;;;;;;39.00;23.20;;;;;;;;;;6226366;28;20132;-76
2022/12/13 05:55:32;;;;;;;49.40;26.57;;;;;;;;;;6216991;28;20124;-75
2022/12/13 05:58:32;;;;;;;54.53;30.43;;;;;;;;;;6231423;28;20073;-76
2022/12/13 06:01:32;;;;;;;56.30;29.27;;;;;;;;;;6227885;28;20030;-77
2022/12/13 06:04:33;;;;;;;56.20;29.90;;;;;;;;;;6226692;28;20025;-76
2022/12/13 06:07:33;;;;;;;59.07;30.77;;;;;;;;;;6238733;28;20182;-75
2022/12/13 06:10:33;;;;;;;57.60;28.87;;;;;;;;;;6238495;28;20029;-76
2022/12/13 06:13:33;;;;;;;51.87;28.53;;;;;;;;;;6231315;28;20025;-76
2022/12/13 06:16:34;;;;;;;57.53;28.37;;;;;;;;;;6238332;28;20048;-76
2022/12/13 06:19:34;;;;;;;58.03;29.40;;;;;;;;;;6241150;28;20112;-75
2022/12/13 06:22:34;;;;;;;46.83;25.37;;;;;;;;;;6238881;28;20021;-76
2022/12/13 06:25:35;;;;;;;46.43;25.23;;;;;;;;;;6234613;28;20037;-76
2022/12/13 06:28:35;;;;;;;51.60;27.57;;;;;;;;;;6220822;28;20018;-76
2022/12/13 06:31:35;;;;;;;52.03;29.50;;;;;;;;;;6219437;28;20171;-75
2022/12/13 06:34:36;;;;;;;45.00;23.70;;;;;;;;;;6229926;28;20025;-75
2022/12/13 06:37:36;;;;;;;50.77;26.70;;;;;;;;;;6235049;28;20032;-75
2022/12/13 06:40:38;;;;;;;51.93;29.13;;;;;;;;;;6234192;28;20028;-75
2022/12/13 06:43:42;;;;;;;52.33;28.55;;;;;;;;;;6222718;28;20022;-75
2022/12/13 06:46:42;;;;;;;46.17;24.30;;;;;;;;;;6230029;28;20021;-76
2022/12/13 06:49:43;;;;;;;46.00;26.30;;;;;;;;;;6223846;28;20390;-75
2022/12/13 06:52:44;;;;;;;48.30;25.75;;;;;;;;;;6231572;28;20671;-76
2022/12/13 06:55:45;;;;;;;53.78;27.42;;;;;;;;;;6227383;28;20028;-77
2022/12/13 06:58:45;;;;;;;41.57;24.50;;;;;;;;;;6230985;28;20046;-76
2022/12/13 07:01:46;;;;;;;44.50;23.77;;;;;;;;;;6232973;28;20034;-76
2022/12/13 07:04:46;;;;;;;43.57;22.23;;;;;;;;;;6220750;28;20490;-76
2022/12/13 07:07:46;;;;;;;52.25;24.48;;;;;;;;;;6221099;28;20073;-76
2022/12/13 07:10:46;;;;;;;48.33;26.47;;;;;;;;;;6231684;28;20037;-76
2022/12/13 07:13:47;;;;;;;47.50;26.83;;;;;;;;;;6229742;28;20029;-76
2022/12/13 07:16:47;;;;;;;42.43;23.13;;;;;;;;;;6226122;28;20381;-77
2022/12/13 07:19:47;;;;;;;45.20;23.73;;;;;;;;;;6228105;28;20029;-76
2022/12/13 07:22:52;;;;;;;37.57;21.93;;;;;;;;;;6225888;28;20436;-77
2022/12/13 07:25:53;;;;;;;44.05;22.92;;;;;;;;;;6226692;28;20042;-76
2022/12/13 07:28:54;;;;;;;36.38;21.02;;;;;;;;;;6221489;28;20234;-77
2022/12/13 07:31:54;;;;;;;52.60;25.10;;;;;;;;;;6225209;28;20540;-76
2022/12/13 07:34:54;;;;;;;37.80;23.30;;;;;;;;;;6225912;28;20026;-77
2022/12/13 07:37:55;;;;;;;38.13;22.47;;;;;;;;;;6226183;28;20018;-77
2022/12/13 07:40:56;;;;;;;43.77;22.83;;;;;;;;;;6232380;28;20037;-78
2022/12/13 07:43:56;;;;;;;41.53;23.00;;;;;;;;;;6229975;28;20381;-77
2022/12/13 07:46:57;;;;;;;36.43;20.83;;;;;;;;;;6233333;28;20018;-76
2022/12/13 07:49:57;;;;;;;35.40;19.67;;;;;;;;;;6231509;28;20528;-78
2022/12/13 07:52:57;;;;;;;39.93;20.83;;;;;;;;;;6232601;28;20014;-77
2022/12/13 07:56:04;;;;;;;35.87;19.73;;;;;;;;;;6228769;28;20013;-77
2022/12/13 07:59:05;;;;;;;33.88;17.55;;;;;;;;;;6233223;28;20517;-76
2022/12/13 08:02:05;;;;;;;29.80;14.97;;;;;;;;;;6228766;28;20071;-77
2022/12/13 08:05:06;;;;;;;27.23;13.70;;;;;;;;;;6232924;28;20065;-77
2022/12/13 08:08:07;;;;;;;34.27;15.83;;;;;;;;;;6227024;28;20472;-77
2022/12/13 08:11:10;;;;;;;35.63;18.57;;;;;;;;;;6223432;28;20503;-76
2022/12/13 08:14:10;;;;;;;31.75;17.73;;;;;;;;;;6229447;28;20306;-77
2022/12/13 08:17:10;;;;;;;30.43;16.60;;;;;;;;;;6225697;28;20033;-77
2022/12/13 08:20:10;;;;;;;24.93;14.97;;;;;;;;;;6225906;28;20029;-76
2022/12/13 08:23:10;;;;;;;29.17;15.50;;;;;;;;;;6225918;28;20083;-78
2022/12/13 08:26:10;;;;;;;32.20;15.40;;;;;;;;;;6237499;28;20025;-78
2022/12/13 08:29:11;;;;;;;28.48;14.82;;;;;;;;;;6229342;28;20288;-77
2022/12/13 08:32:12;;;;;;;32.23;13.30;;;;;;;;;;6229766;28;20057;-77
2022/12/13 08:35:12;;;;;;;23.93;11.00;;;;;;;;;;6218549;28;20466;-77
2022/12/13 08:38:12;;;;;;;31.50;15.70;;;;;;;;;;6221388;28;20068;-77
2022/12/13 08:41:13;;;;;;;25.30;12.10;;;;;;;;;;6220695;28;20107;-76
2022/12/13 08:44:13;;;;;;;25.48;13.63;;;;;;;;;;6234758;28;20028;-76
2022/12/13 08:47:13;;;;;;;21.90;12.10;;;;;;;;;;6223236;28;20405;-76
2022/12/13 08:50:13;;;;;;;21.20;11.60;;;;;;;;;;6228796;28;20024;-76
2022/12/13 08:53:13;;;;;;;21.80;10.23;;;;;;;;;;6220250;28;20009;-76
2022/12/13 08:56:14;;;;;;;24.10;13.17;;;;;;;;;;6223884;28;20025;-76
2022/12/13 08:59:14;;;;;;;23.90;11.67;;;;;;;;;;6223585;28;20077;-76
2022/12/13 09:02:14;;;;;;;21.23;12.40;;;;;;;;;;6223264;28;20457;-77
2022/12/13 09:05:14;;;;;;;28.37;12.73;;;;;;;;;;6216098;28;20456;-77
2022/12/13 09:08:16;;;;;;;33.40;14.83;;;;;;;;;;6227543;28;20056;-77
2022/12/13 09:11:16;;;;;;;28.23;13.80;;;;;;;;;;6216660;28;20453;-76
2022/12/13 09:14:16;;;;;;;28.42;13.82;;;;;;;;;;6220711;28;20032;-76
2022/12/13 09:17:16;;;;;;;32.70;14.33;;;;;;;;;;6225809;28;20018;-76
2022/12/13 09:20:17;;;;;;;19.57;11.33;;;;;;;;;;6216478;28;20021;-76
2022/12/13 09:23:17;;;;;;;39.20;16.17;;;;;;;;;;6219596;28;20053;-76
2022/12/13 09:26:17;;;;;;;28.07;12.50;;;;;;;;;;6228892;28;20017;-77
2022/12/13 09:29:17;;;;;;;29.43;14.10;;;;;;;;;;6220672;28;20330;-76
2022/12/13 09:32:17;;;;;;;27.80;14.03;;;;;;;;;;6217134;28;20210;-77
2022/12/13 09:35:18;;;;;;;20.90;9.53;;;;;;;;;;6246514;28;20021;-77
2022/12/13 09:38:18;;;;;;;24.47;11.70;;;;;;;;;;6241001;28;20029;-78
2022/12/13 09:41:54;;;;;;;19.87;10.53;;;;;;;;;;6241574;28;20033;-77
2022/12/13 09:45:05;;;;;;;18.50;10.25;;;;;;;;;;6236726;28;20021;-77
2022/12/13 09:48:06;;;;;;;21.85;9.98;;;;;;;;;;6243121;28;20572;-77
2022/12/13 09:51:08;;;;;;;21.93;9.97;;;;;;;;;;6243531;28;20532;-78
2022/12/13 09:54:15;;;;;;;26.10;12.10;;;;;;;;;;6239166;28;20079;-77
2022/12/13 09:57:20;;;;;;;36.30;17.42;;;;;;;;;;6246462;28;20114;-79
2022/12/13 10:00:22;;;;;;;26.45;13.40;;;;;;;;;;6239873;28;20225;-78
2022/12/13 10:03:23;;;;;;;27.00;12.80;;;;;;;;;;6241324;28;20018;-79
2022/12/13 10:06:27;;;;;;;33.08;16.90;;;;;;;;;;6243663;28;20025;-77
2022/12/13 10:09:27;;;;;;;40.13;19.33;;;;;;;;;;6241673;28;20030;-78
2022/12/13 10:12:28;;;;;;;39.10;18.47;;;;;;;;;;6244235;28;20025;-78
2022/12/13 10:15:30;;;;;;;31.80;15.37;;;;;;;;;;6247616;28;20452;-78
2022/12/13 10:18:33;;;;;;;21.90;11.52;;;;;;;;;;6242050;28;20052;-79
2022/12/13 10:21:38;;;;;;;27.83;14.88;;;;;;;;;;6240733;28;20022;-78
2022/12/13 10:24:49;;;;;;;28.48;13.57;;;;;;;;;;6243669;28;20531;-78
2022/12/13 10:27:49;;;;;;;30.83;17.67;;;;;;;;;;6238624;28;20017;-79
2022/12/13 10:30:50;;;;;;;29.10;15.13;;;;;;;;;;6259670;28;20044;-79
2022/12/13 10:33:54;;;;;;;30.00;14.60;;;;;;;;;;6242893;28;20108;-78
2022/12/13 10:36:55;;;;;;;40.75;20.90;;;;;;;;;;6229572;28;20018;-78
2022/12/13 10:39:56;;;;;;;37.90;19.43;;;;;;;;;;6243529;28;20500;-78
2022/12/13 10:43:11;;;;;;;37.37;18.67;;;;;;;;;;6233441;28;20485;-78
2022/12/13 10:46:18;;;;;;;41.03;20.48;;;;;;;;;;6244035;28;20473;-79
2022/12/13 10:49:20;;;;;;;34.25;19.85;;;;;;;;;;6244476;28;20029;-79
2022/12/13 10:52:21;;;;;;;37.08;19.65;;;;;;;;;;6239767;28;20018;-77
2022/12/13 10:55:30;;;;;;;40.00;21.13;;;;;;;;;;6240293;28;20128;-78
2022/12/13 10:58:39;;;;;;;33.25;15.80;;;;;;;;;;6243497;28;20053;-79
2022/12/13 11:01:39;;;;;;;31.55;16.77;;;;;;;;;;6242871;28;20080;-77
2022/12/13 11:04:39;;;;;;;41.23;23.47;;;;;;;;;;6240014;28;20778;-77
2022/12/13 11:07:41;;;;;;;38.37;18.73;;;;;;;;;;6245698;28;20497;-77
2022/12/13 11:10:41;;;;;;;;;;;;;;;;;;6256938;28;20100;-76
2022/12/13 11:13:52;;;;;;;36.58;19.38;;;;;;;;;;6239349;28;19970;-77
2022/12/13 11:16:56;;;;;;;37.28;19.15;;;;;;;;;;6228187;28;20032;-78
2022/12/13 11:19:59;;;;;;;46.10;23.40;;;;;;;;;;6237943;28;20031;-77
2022/12/13 11:23:02;;;;;;;41.15;23.10;;;;;;;;;;6229911;28;20029;-77
2022/12/13 11:26:09;;;;;;;52.05;26.55;;;;;;;;;;6236383;28;20026;-78
2022/12/13 11:29:12;;;;;;;59.63;34.53;;;;;;;;;;6231256;28;20084;-77
2022/12/13 11:32:26;;;;;;;64.43;31.92;;;;;;;;;;6226615;28;20087;-77
2022/12/13 11:35:36;;;;;;;62.58;33.78;;;;;;;;;;6231214;28;20021;-77
2022/12/13 11:38:55;;;;;;;75.40;40.22;;;;;;;;;;6235895;28;20105;-77
2022/12/13 11:42:08;;;;;;;65.20;36.70;;;;;;;;;;6228399;28;20021;-77
2022/12/13 11:45:20;;;;;;;81.00;36.60;;;;;;;;;;6231385;28;20324;-78
2022/12/13 11:48:24;;;;;;;58.08;28.10;;;;;;;;;;6234454;28;20129;-77
2022/12/13 11:51:27;;;;;;;60.78;28.52;;;;;;;;;;6236069;28;20059;-76
2022/12/13 11:54:33;;;;;;;51.63;27.60;;;;;;;;;;6231266;28;20029;-77
2022/12/13 11:57:48;;;;;;;63.30;30.67;;;;;;;;;;6224392;28;20041;-76
2022/12/13 12:00:56;;;;;;;51.80;25.08;;;;;;;;;;6227310;28;20014;-77
2022/12/13 12:04:02;;;;;;;45.33;23.38;;;;;;;;;;6230897;28;20084;-76
2022/12/13 12:07:10;;;;;;;45.65;23.67;;;;;;;;;;6231183;28;20457;-76
2022/12/13 12:10:13;;;;;;;49.35;24.95;;;;;;;;;;6234434;28;20060;-76
2022/12/13 12:13:26;;;;;;;46.40;23.27;;;;;;;;;;6221294;28;20022;-76
2022/12/13 12:16:42;;;;;;;49.72;24.40;;;;;;;;;;6238133;28;20515;-77
2022/12/13 12:19:45;;;;;;;51.15;21.98;;;;;;;;;;6231922;28;20013;-77
2022/12/13 12:22:49;;;;;;;53.65;25.63;;;;;;;;;;6221519;28;20018;-77
2022/12/13 12:25:52;;;;;;;57.60;26.45;;;;;;;;;;6222356;28;20105;-78
2022/12/13 12:29:04;;;;;;;42.88;22.58;;;;;;;;;;6230336;28;20061;-79
2022/12/13 12:32:10;;;;;;;42.95;21.60;;;;;;;;;;6229573;28;20022;-78
2022/12/13 12:35:29;;;;;;;45.03;20.55;;;;;;;;;;6240390;28;20041;-78
2022/12/13 12:38:48;;;;;;;41.20;20.80;;;;;;;;;;6233600;28;20022;-78
2022/12/13 12:42:02;;;;;;;32.60;16.95;;;;;;;;;;6241572;28;20033;-78
2022/12/13 12:45:23;;;;;;;37.25;17.92;;;;;;;;;;6237888;28;20025;-80
2022/12/13 12:48:46;;;;;;;41.50;17.75;;;;;;;;;;6228330;28;20544;-77
2022/12/13 12:51:52;;;;;;;29.65;15.57;;;;;;;;;;6232634;28;21455;-77
2022/12/13 12:54:53;;;;;;;34.28;16.40;;;;;;;;;;6245856;28;20104;-77
2022/12/13 12:58:14;;;;;;;31.63;18.03;;;;;;;;;;6231909;28;20409;-78
2022/12/13 13:01:17;;;;;;;33.70;17.37;;;;;;;;;;6225984;28;20021;-78
2022/12/13 13:04:20;;;;;;;28.77;16.92;;;;;;;;;;6223483;28;20484;-77
2022/12/13 13:07:23;;;;;;;29.88;16.08;;;;;;;;;;6218684;28;20028;-77
2022/12/13 13:10:24;;;;;;;30.80;14.63;;;;;;;;;;6233022;28;20120;-77
2022/12/13 13:13:32;;;;;;;28.37;16.30;;;;;;;;;;6236272;28;20023;-77
2022/12/13 13:16:34;;;;;;;27.40;16.52;;;;;;;;;;6239454;28;20022;-78
2022/12/13 13:19:35;;;;;;;35.47;17.25;;;;;;;;;;6231200;28;20506;-78
2022/12/13 13:22:36;;;;;;;38.87;19.73;;;;;;;;;;6233266;28;20053;-77
2022/12/13 13:25:36;;;;;;;50.05;23.58;;;;;;;;;;6231546;28;20382;-78
2022/12/13 13:28:36;;;;;;;43.30;21.60;;;;;;;;;;6239845;28;20034;-77
2022/12/13 13:31:55;;;;;;;60.15;27.75;;;;;;;;;;6229437;28;20205;-78
2022/12/13 13:35:15;;;;;;;55.85;27.10;;;;;;;;;;6238053;28;20053;-77
2022/12/13 13:38:23;;;;;;;60.67;29.15;;;;;;;;;;6229186;28;20032;-77
2022/12/13 13:41:59;;;;;;;50.58;24.33;;;;;;;;;;6237003;28;20036;-77
2022/12/13 13:45:19;;;;;;;48.83;24.52;;;;;;;;;;6232001;28;20025;-77
2022/12/13 13:48:36;;;;;;;42.55;24.70;;;;;;;;;;6239077;28;20053;-78
2022/12/13 13:51:45;;;;;;;44.42;23.08;;;;;;;;;;6223112;28;20370;-79
2022/12/13 13:54:48;;;;;;;50.58;23.60;;;;;;;;;;6243976;28;20017;-77
2022/12/13 13:58:07;;;;;;;46.35;25.30;;;;;;;;;;6237159;28;20133;-78
2022/12/13 14:01:07;;;;;;;51.97;26.02;;;;;;;;;;6241027;28;20039;-77
2022/12/13 14:04:20;;;;;;;80.50;36.63;;;;;;;;;;6233084;28;20021;-78
2022/12/13 14:07:39;;;;;;;122.32;53.50;;;;;;;;;;6234784;28;20029;-76
2022/12/13 14:10:49;;;;;;;97.03;42.58;;;;;;;;;;6243528;28;20381;-76
2022/12/13 14:14:08;;;;;;;63.40;32.55;;;;;;;;;;6237359;28;20025;-76
2022/12/13 14:17:15;;;;;;;62.42;30.75;;;;;;;;;;6252671;28;20033;-76
2022/12/13 14:20:33;;;;;;;52.60;30.65;;;;;;;;;;6243276;28;20512;-76
2022/12/13 14:23:34;;;;;;;162.15;78.43;;;;;;;;;;6224895;28;20041;-75
2022/12/13 14:26:57;;;;;;;138.25;67.93;;;;;;;;;;6229583;28;20230;-76
2022/12/13 14:29:58;;;;;;;134.55;68.38;;;;;;;;;;6220839;28;20489;-76
2022/12/13 14:32:58;;;;;;;78.17;38.40;;;;;;;;;;6217663;28;20045;-76
2022/12/13 14:36:00;;;;;;;84.37;45.80;;;;;;;;;;6232306;28;20018;-76
2022/12/13 14:39:02;;;;;;;81.72;41.10;;;;;;;;;;6237288;28;20459;-76
2022/12/13 14:42:19;;;;;;;108.40;50.60;;;;;;;;;;6235954;28;20036;-76
2022/12/13 14:45:23;;;;;;;110.10;50.92;;;;;;;;;;6235844;28;20087;-76
2022/12/13 14:48:24;;;;;;;87.63;44.15;;;;;;;;;;6237785;28;20018;-76
2022/12/13 14:51:31;;;;;;;86.50;43.30;;;;;;;;;;6234223;28;20026;-76
2022/12/13 14:54:43;;;;;;;82.78;44.45;;;;;;;;;;6229297;28;20116;-77
2022/12/13 14:57:49;;;;;;;92.72;48.83;;;;;;;;;;6219350;28;20509;-76
2022/12/13 15:00:50;;;;;;;124.45;62.45;;;;;;;;;;6219925;28;20268;-76
2022/12/13 15:03:50;;;;;;;88.63;46.20;;;;;;;;;;6232740;28;20083;-76
2022/12/13 15:06:59;;;;;;;103.30;52.60;;;;;;;;;;6226923;28;20273;-77
2022/12/13 15:10:03;;;;;;;130.15;61.60;;;;;;;;;;6238734;28;20032;-76
2022/12/13 15:13:03;;;;;;;68.35;37.65;;;;;;;;;;6233037;28;20112;-75
2022/12/13 15:16:18;;;;;;;75.53;38.70;;;;;;;;;;6238233;28;20021;-76
2022/12/13 15:19:20;;;;;;;76.80;38.95;;;;;;;;;;6229659;28;20390;-75
2022/12/13 15:22:20;;;;;;;;;;;;;;;;;;6237097;28;20025;-75
2022/12/13 15:25:20;;;;;;;65.18;32.60;;;;;;;;;;6239332;28;19912;-76
2022/12/13 15:28:21;;;;;;;53.90;25.67;;;;;;;;;;6237053;28;20037;-77
2022/12/13 15:31:22;;;;;;;55.67;29.67;;;;;;;;;;6236874;28;20094;-76
2022/12/13 15:34:28;;;;;;;58.95;31.50;;;;;;;;;;6237631;28;20032;-76
2022/12/13 15:37:31;;;;;;;64.80;33.80;;;;;;;;;;6237341;28;20029;-77
2022/12/13 15:40:32;;;;;;;59.13;30.92;;;;;;;;;;6226719;28;20299;-77
2022/12/13 15:43:35;;;;;;;52.80;29.40;;;;;;;;;;6219645;28;20021;-77
2022/12/13 15:46:36;;;;;;;66.80;33.08;;;;;;;;;;6227693;28;20013;-77
2022/12/13 15:49:44;;;;;;;57.00;30.92;;;;;;;;;;6229850;28;20080;-78
2022/12/13 15:52:44;;;;;;;64.18;34.53;;;;;;;;;;6238296;28;20332;-77
2022/12/13 15:55:45;;;;;;;66.93;34.80;;;;;;;;;;6231364;28;20584;-76
2022/12/13 15:58:51;;;;;;;67.25;33.80;;;;;;;;;;6224959;28;20506;-76
2022/12/13 16:01:51;;;;;;;83.50;40.63;;;;;;;;;;6215228;28;20044;-76
2022/12/13 16:04:51;;;;;;;100.53;47.00;;;;;;;;;;6221100;28;20093;-76
2022/12/13 16:07:52;;;;;;;102.00;46.20;;;;;;;;;;6232164;28;20076;-76
2022/12/13 16:10:53;;;;;;;73.43;34.37;;;;;;;;;;6237195;28;20257;-76
2022/12/13 16:14:14;;;;;;;65.80;33.47;;;;;;;;;;6235961;28;20405;-76
2022/12/13 16:17:25;;;;;;;88.57;39.73;;;;;;;;;;6235033;28;20033;-76
2022/12/13 16:20:26;;;;;;;57.92;30.08;;;;;;;;;;6221479;28;20109;-76
2022/12/13 16:23:27;;;;;;;49.95;23.75;;;;;;;;;;6215468;28;20429;-76
2022/12/13 16:26:27;;;;;;;50.40;23.30;;;;;;;;;;6228077;28;20029;-76
2022/12/13 16:29:27;;;;;;;55.67;26.50;;;;;;;;;;6230742;28;20113;-77
2022/12/13 16:32:28;;;;;;;48.83;23.47;;;;;;;;;;6215262;28;20014;-75
2022/12/13 16:35:28;;;;;;;47.47;24.53;;;;;;;;;;6216083;28;20021;-76
2022/12/13 16:38:28;;;;;;;54.73;25.93;;;;;;;;;;6225678;28;20400;-77
2022/12/13 16:41:28;;;;;;;57.03;29.53;;;;;;;;;;6226324;28;20021;-77
2022/12/13 16:44:36;;;;;;;44.37;22.63;;;;;;;;;;6230544;28;20025;-77
2022/12/13 16:47:36;;;;;;;38.42;19.88;;;;;;;;;;6223559;28;20033;-77
2022/12/13 16:50:39;;;;;;;42.30;22.30;;;;;;;;;;6236164;28;20143;-77
2022/12/13 16:53:40;;;;;;;45.28;23.50;;;;;;;;;;6231241;28;20470;-77
2022/12/13 16:56:40;;;;;;;62.25;31.23;;;;;;;;;;6236750;28;20024;-77
2022/12/13 16:59:40;;;;;;;73.83;33.47;;;;;;;;;;6222362;28;20376;-77
2022/12/13 17:02:40;;;;;;;71.57;34.97;;;;;;;;;;6235516;28;20481;-79
2022/12/13 17:05:41;;;;;;;88.83;36.60;;;;;;;;;;6230523;28;20033;-78
2022/12/13 17:08:42;;;;;;;97.27;44.07;;;;;;;;;;6222439;28;20050;-78
2022/12/13 17:11:42;;;;;;;90.73;43.17;;;;;;;;;;6220896;28;20500;-77
2022/12/13 17:14:42;;;;;;;83.23;41.73;;;;;;;;;;6225003;28;20375;-77
2022/12/13 17:17:43;;;;;;;76.57;36.10;;;;;;;;;;6228320;28;20021;-77
2022/12/13 17:20:43;;;;;;;72.60;37.00;;;;;;;;;;6229235;28;20481;-77
2022/12/13 17:23:43;;;;;;;80.27;39.60;;;;;;;;;;6238028;28;20025;-77
2022/12/13 17:26:44;;;;;;;68.40;36.67;;;;;;;;;;6235786;28;20083;-78
2022/12/13 17:29:45;;;;;;;81.80;38.30;;;;;;;;;;6236425;28;20443;-78
2022/12/13 17:32:45;;;;;;;77.32;38.83;;;;;;;;;;6232616;28;20038;-78
2022/12/13 17:35:46;;;;;;;88.73;45.53;;;;;;;;;;6241253;28;20018;-78
2022/12/13 17:38:46;;;;;;;82.65;43.47;;;;;;;;;;6226250;28;20037;-78
2022/12/13 17:41:46;;;;;;;85.27;43.23;;;;;;;;;;6231150;28;20493;-78
2022/12/13 17:44:46;;;;;;;84.57;44.43;;;;;;;;;;6238060;28;20032;-78
2022/12/13 17:47:47;;;;;;;106.60;45.30;;;;;;;;;;6237934;28;20014;-77
2022/12/13 17:50:47;;;;;;;86.73;43.37;;;;;;;;;;6239204;28;20074;-79
2022/12/13 17:53:47;;;;;;;87.77;42.77;;;;;;;;;;6237706;28;20029;-78
2022/12/13 17:56:47;;;;;;;84.70;40.63;;;;;;;;;;6232792;28;20464;-79
2022/12/13 17:59:48;;;;;;;78.47;37.47;;;;;;;;;;6235208;28;20145;-78